createdAt,value
2023-05-20T06:20:33.810Z,56.42
2023-05-20T06:23:01.644Z,55.43
2023-05-20T06:28:35.160Z,54.62
2023-05-20T06:31:01.870Z,55.97
2023-05-20T06:33:30.088Z,54.38
2023-05-20T06:35:57.287Z,51.95
2023-05-20T06:38:23.875Z,51.72
2023-05-20T06:40:50.662Z,51.95
2023-05-20T06:43:17.441Z,51.81
2023-05-20T06:45:44.471Z,52.12
2023-05-20T06:48:11.294Z,49.83
2023-05-20T06:50:38.366Z,52.80
2023-05-20T06:53:05.181Z,50.75
2023-05-20T06:55:31.843Z,50.61
2023-05-20T06:57:58.422Z,48.67
2023-05-20T07:00:25.137Z,48.85
2023-05-20T07:02:51.797Z,50.37
2023-05-20T07:05:18.407Z,48.92
2023-05-20T07:07:44.960Z,49.99
2023-05-20T07:10:11.528Z,50.56
2023-05-20T07:12:38.160Z,50.56
2023-05-20T07:15:04.917Z,50.98
2023-05-20T07:17:31.623Z,51.11
2023-05-20T07:19:58.125Z,51.57
2023-05-20T07:22:24.696Z,51.47
2023-05-20T07:24:51.202Z,50.97
2023-05-20T07:27:17.965Z,50.99
2023-05-20T07:29:44.762Z,50.36
2023-05-20T07:32:11.443Z,51.08
2023-05-20T07:34:38.110Z,50.82
2023-05-20T07:37:04.701Z,49.51
2023-05-20T07:39:31.474Z,50.07
2023-05-20T07:41:57.969Z,50.43
2023-05-20T07:44:24.733Z,50.09
2023-05-20T07:46:51.243Z,50.46
2023-05-20T07:49:17.773Z,49.38
2023-05-20T07:51:44.317Z,49.88
2023-05-20T07:54:10.940Z,50.00
2023-05-20T07:56:37.407Z,49.42
2023-05-20T07:59:03.952Z,49.58
2023-05-20T08:01:30.870Z,49.75
2023-05-20T08:03:57.809Z,47.55
2023-05-20T08:06:25.456Z,48.48
2023-05-20T08:08:56.359Z,48.09
2023-05-20T08:11:22.846Z,48.16
2023-05-20T08:13:49.373Z,49.29
2023-05-20T08:16:16.093Z,49.98
2023-05-20T08:18:42.793Z,48.90
2023-05-20T08:21:10.004Z,48.28
2023-05-20T08:23:40.204Z,48.38
2023-05-20T08:26:07.778Z,47.89
2023-05-20T08:28:34.376Z,47.54
2023-05-20T08:31:04.097Z,48.84
2023-05-20T08:33:30.505Z,48.67
2023-05-20T08:35:57.313Z,49.16
2023-05-20T08:38:23.967Z,49.29
2023-05-20T08:40:57.856Z,48.72
2023-05-20T08:43:25.016Z,49.82
2023-05-20T08:45:55.136Z,50.83
2023-05-20T08:48:23.263Z,49.87
2023-05-20T08:50:57.017Z,49.55
2023-05-20T08:53:23.808Z,50.21
2023-05-20T08:56:00.841Z,48.79
2023-05-20T08:58:28.426Z,49.87
2023-05-20T09:00:55.615Z,49.94
2023-05-20T09:03:44.590Z,48.52
2023-05-20T09:18:30.286Z,49.89
2023-05-20T09:20:56.878Z,49.98
2023-05-20T09:23:23.452Z,49.39
2023-05-20T09:25:51.139Z,47.77
2023-05-20T09:28:19.768Z,48.02
2023-05-20T09:30:49.774Z,49.10
2023-05-20T09:33:16.488Z,49.97
2023-05-20T09:35:42.960Z,48.54
2023-05-20T09:38:09.677Z,47.52
2023-05-20T09:40:40.352Z,47.73
2023-05-20T09:43:11.369Z,48.40
2023-05-20T09:45:38.598Z,47.83
2023-05-20T09:48:09.261Z,47.36
2023-05-20T09:50:35.828Z,46.65
2023-05-20T09:53:03.582Z,46.28
2023-05-20T09:55:30.146Z,47.23
2023-05-20T09:57:56.714Z,46.15
2023-05-20T10:00:23.377Z,46.14
2023-05-20T10:02:52.963Z,47.63
2023-05-20T10:05:20.881Z,47.19
2023-05-20T10:08:14.904Z,45.22
2023-05-20T10:10:52.455Z,46.17
2023-05-20T10:13:34.219Z,46.21
2023-05-20T10:16:18.025Z,46.96
2023-05-20T10:19:13.758Z,46.40
2023-05-20T10:21:40.258Z,45.47
2023-05-20T10:24:08.116Z,47.16
2023-05-20T10:26:38.513Z,45.41
2023-05-20T10:29:20.602Z,45.11
2023-05-20T10:31:51.340Z,47.34
2023-05-20T10:34:19.294Z,45.81
2023-05-20T10:36:54.956Z,45.06
2023-05-20T10:39:34.024Z,45.00
2023-05-20T10:42:10.544Z,46.84
2023-05-20T10:44:47.221Z,46.41
2023-05-20T10:47:24.618Z,45.80
2023-05-20T10:49:52.647Z,45.93
2023-05-20T10:52:19.179Z,45.40
2023-05-20T10:54:58.697Z,43.80
2023-05-20T10:57:28.746Z,43.47
2023-05-20T10:59:55.421Z,45.91
2023-05-20T11:02:26.622Z,43.62
2023-05-20T11:04:53.448Z,44.47
2023-05-20T11:07:29.588Z,45.12
2023-05-20T11:09:59.209Z,44.32
2023-05-20T11:12:26.097Z,46.79
2023-05-20T11:14:52.768Z,45.67
2023-05-20T11:17:19.493Z,45.69
2023-05-20T11:19:49.134Z,45.93
2023-05-20T11:22:15.552Z,46.32
2023-05-20T11:24:43.228Z,47.24
2023-05-20T11:27:09.792Z,47.58
2023-05-20T11:29:36.353Z,47.64
2023-05-20T11:32:02.933Z,47.28
2023-05-20T11:34:36.477Z,47.97
2023-05-20T11:37:03.102Z,48.04
2023-05-20T11:39:29.934Z,47.76
2023-05-20T11:41:56.406Z,47.52
2023-05-20T11:44:22.902Z,47.23
2023-05-20T11:46:49.367Z,47.04
2023-05-20T11:49:16.104Z,46.84
2023-05-20T11:51:45.647Z,47.64
2023-05-20T11:54:12.111Z,47.91
2023-05-20T11:56:38.903Z,46.61
2023-05-20T11:59:06.049Z,47.38
2023-05-20T12:01:40.936Z,48.26
2023-05-20T12:04:08.314Z,48.29
2023-05-20T12:06:35.229Z,47.63
2023-05-20T12:09:06.586Z,48.27
2023-05-20T12:11:37.239Z,48.82
2023-05-20T12:14:04.009Z,47.84
2023-05-20T12:16:31.720Z,48.13
2023-05-20T12:18:58.291Z,47.61
2023-05-20T12:21:24.767Z,47.36
2023-05-20T12:23:57.360Z,46.94
2023-05-20T12:26:24.602Z,48.17
2023-05-20T12:28:51.263Z,46.20
2023-05-20T12:31:17.800Z,47.81
2023-05-20T12:33:44.434Z,47.59
2023-05-20T12:36:10.876Z,46.88
2023-05-20T12:38:37.364Z,47.33
2023-05-20T12:41:03.835Z,48.67
2023-05-20T12:43:30.448Z,47.28
2023-05-20T12:45:56.948Z,48.46
2023-05-20T12:48:23.435Z,47.46
2023-05-20T12:50:49.876Z,49.16
2023-05-20T12:53:16.374Z,48.01
2023-05-20T12:55:42.912Z,47.51
2023-05-20T12:58:09.431Z,47.95
2023-05-20T13:00:36.220Z,48.34
2023-05-20T13:03:03.117Z,49.28
2023-05-20T13:05:29.671Z,48.12
2023-05-20T13:07:56.146Z,48.84
2023-05-20T13:10:23.338Z,50.71
2023-05-20T13:12:49.790Z,51.58
2023-05-20T13:15:16.256Z,51.26
2023-05-20T13:17:42.909Z,49.97
2023-05-20T13:20:10.902Z,49.53
2023-05-20T13:22:37.943Z,50.06
2023-05-20T13:25:05.233Z,49.92
2023-05-20T13:27:31.677Z,48.48
2023-05-20T13:29:58.146Z,47.61
2023-05-20T13:32:24.637Z,49.96
2023-05-20T13:34:51.187Z,48.99
2023-05-20T13:37:17.712Z,48.92
2023-05-20T13:39:44.198Z,49.15
2023-05-20T13:42:10.740Z,49.69
2023-05-20T13:44:37.208Z,50.42
2023-05-20T13:47:03.819Z,47.55
2023-05-20T13:49:30.472Z,50.53
2023-05-20T13:51:56.963Z,50.12
2023-05-20T13:54:23.428Z,50.22
2023-05-20T13:56:49.899Z,51.33
2023-05-20T13:59:16.592Z,50.50
2023-05-20T14:01:46.560Z,50.59
2023-05-20T14:04:13.128Z,49.22
2023-05-20T14:06:39.730Z,50.64
2023-05-20T14:09:06.605Z,50.43
2023-05-20T14:11:33.134Z,50.25
2023-05-20T14:13:59.629Z,50.12
2023-05-20T14:16:26.139Z,50.54
2023-05-20T14:18:52.751Z,50.56
2023-05-20T14:21:19.282Z,51.45
2023-05-20T14:23:45.732Z,51.00
2023-05-20T14:26:12.198Z,51.09
2023-05-20T14:28:38.946Z,50.07
2023-05-20T14:31:08.204Z,50.76
2023-05-20T14:33:36.081Z,51.32
2023-05-20T14:36:02.880Z,50.59
2023-05-20T14:38:29.421Z,50.53
2023-05-20T14:40:55.869Z,52.04
2023-05-20T14:43:22.310Z,50.96
2023-05-20T14:45:48.988Z,50.93
2023-05-20T14:48:15.528Z,50.99
2023-05-20T14:50:42.072Z,51.27
2023-05-20T14:53:08.585Z,50.04
2023-05-20T14:55:35.058Z,49.93
2023-05-20T14:58:01.673Z,52.15
2023-05-20T15:00:28.170Z,49.64
2023-05-20T15:02:55.736Z,51.27
2023-05-20T15:05:22.341Z,50.78
2023-05-20T15:07:48.830Z,50.45
2023-05-20T15:10:15.329Z,50.62
2023-05-20T15:12:42.045Z,49.81
2023-05-20T15:15:09.375Z,49.85
2023-05-20T15:17:35.851Z,52.48
2023-05-20T15:20:02.474Z,50.96
2023-05-20T15:22:29.262Z,49.86
2023-05-20T15:24:55.827Z,50.25
2023-05-20T15:27:22.295Z,49.75
2023-05-20T15:29:48.821Z,50.10
2023-05-20T15:32:15.310Z,51.02
2023-05-20T15:34:41.845Z,51.20
2023-05-20T15:37:08.317Z,50.05
2023-05-20T15:39:36.889Z,50.74
2023-05-20T15:42:03.963Z,51.68
2023-05-20T15:44:30.865Z,49.90
2023-05-20T15:46:57.352Z,50.25
2023-05-20T15:49:23.899Z,50.57
2023-05-20T15:52:02.388Z,52.04
2023-05-20T15:54:36.901Z,51.58
2023-05-20T15:57:03.455Z,50.68
2023-05-20T15:59:29.914Z,52.33
2023-05-20T16:01:56.539Z,50.30
2023-05-20T16:04:23.204Z,51.68
2023-05-20T16:06:49.906Z,51.89
2023-05-20T16:09:16.498Z,51.88
2023-05-20T16:11:42.962Z,50.59
2023-05-20T16:14:09.419Z,51.69
2023-05-20T16:16:36.330Z,51.33
2023-05-20T16:19:02.997Z,52.45
2023-05-20T16:21:29.555Z,52.00
2023-05-20T16:23:56.041Z,52.24
2023-05-20T16:26:22.757Z,51.80
2023-05-20T16:28:49.332Z,53.38
2023-05-20T16:31:16.248Z,52.78
2023-05-20T16:33:42.982Z,53.61
2023-05-20T16:36:09.679Z,54.33
2023-05-20T16:38:36.951Z,52.60
2023-05-20T16:41:03.580Z,53.35
2023-05-20T16:43:30.138Z,53.00
2023-05-20T16:45:56.791Z,52.62
2023-05-20T16:48:23.487Z,52.54
2023-05-20T16:50:50.143Z,52.44
2023-05-20T16:53:16.824Z,52.92
2023-05-20T16:55:43.370Z,52.84
2023-05-20T16:58:10.176Z,52.58
2023-05-20T17:00:36.848Z,53.93
2023-05-20T17:03:03.517Z,54.02
2023-05-20T17:05:30.068Z,54.11
2023-05-20T17:08:00.057Z,53.38
2023-05-20T17:10:28.615Z,53.38
2023-05-20T17:12:55.458Z,54.30
2023-05-20T17:15:23.480Z,54.06
2023-05-20T17:17:50.745Z,53.49
2023-05-20T17:20:17.472Z,53.54
2023-05-20T17:22:43.982Z,54.05
2023-05-20T17:25:10.839Z,53.55
2023-05-20T17:27:37.522Z,53.38
2023-05-20T17:30:04.407Z,54.02
2023-05-20T17:32:31.011Z,54.52
2023-05-20T17:34:57.622Z,54.71
2023-05-20T17:37:24.227Z,54.63
2023-05-20T17:39:50.859Z,54.28
2023-05-20T17:42:17.672Z,54.19
2023-05-20T17:44:44.207Z,54.31
2023-05-20T17:47:11.023Z,54.68
2023-05-20T17:49:37.623Z,55.03
2023-05-20T17:52:04.266Z,54.90
2023-05-20T17:54:30.938Z,54.76
2023-05-20T17:56:57.454Z,55.35
2023-05-20T17:59:24.056Z,56.24
2023-05-20T18:01:51.654Z,55.79
2023-05-20T18:04:18.263Z,55.26
2023-05-20T18:06:45.073Z,55.36
2023-05-20T18:09:11.625Z,55.89
2023-05-20T18:11:40.878Z,56.42
2023-05-20T18:14:07.433Z,55.72
2023-05-20T18:16:34.003Z,56.76
2023-05-20T18:19:00.919Z,56.06
2023-05-20T18:21:27.514Z,55.94
2023-05-20T18:23:54.144Z,56.70
2023-05-20T18:26:21.577Z,56.71
2023-05-20T18:28:49.898Z,57.04
2023-05-20T18:31:16.515Z,56.70
2023-05-20T18:33:43.210Z,57.53
2023-05-20T18:36:09.948Z,57.71
2023-05-20T18:38:37.474Z,58.50
2023-05-20T18:41:12.680Z,58.27
2023-05-20T18:43:39.266Z,58.85
2023-05-20T18:46:06.016Z,59.10
2023-05-20T18:48:32.591Z,59.50
2023-05-20T18:50:59.164Z,59.48
2023-05-20T18:53:25.856Z,59.88
2023-05-20T18:55:52.448Z,60.32
2023-05-20T18:58:19.046Z,60.51
2023-05-20T19:00:46.032Z,59.82
2023-05-20T19:03:12.705Z,59.65
2023-05-20T19:05:39.621Z,59.61
2023-05-20T19:08:06.628Z,60.01
2023-05-20T19:10:33.323Z,60.41
2023-05-20T19:13:00.015Z,60.25
2023-05-20T19:15:26.689Z,60.86
2023-05-20T19:17:53.669Z,60.85
2023-05-20T19:20:20.595Z,61.36
2023-05-20T19:22:47.506Z,61.43
2023-05-20T19:25:14.310Z,61.15
2023-05-20T19:27:41.285Z,61.68
2023-05-20T19:30:10.725Z,61.84
2023-05-20T19:32:38.191Z,61.92
2023-05-20T19:35:06.406Z,62.13
2023-05-20T19:37:33.579Z,61.95
2023-05-20T19:40:00.705Z,62.12
2023-05-20T19:42:27.507Z,61.54
2023-05-20T19:44:54.351Z,61.93
2023-05-20T19:47:21.391Z,61.97
2023-05-20T19:49:48.194Z,61.76
2023-05-20T19:52:14.942Z,61.60
2023-05-20T19:54:42.794Z,62.01
2023-05-20T19:57:09.776Z,61.90
2023-05-20T19:59:38.029Z,61.96
2023-05-20T20:02:06.249Z,62.63
2023-05-20T20:04:33.025Z,62.73
2023-05-20T20:07:00.035Z,62.43
2023-05-20T20:09:27.627Z,62.22
2023-05-20T20:11:54.485Z,62.01
2023-05-20T20:14:21.586Z,62.26
2023-05-20T20:16:49.618Z,62.14
2023-05-20T20:19:23.233Z,62.08
2023-05-20T20:21:52.372Z,62.02
2023-05-20T20:24:19.694Z,62.41
2023-05-20T20:26:49.397Z,62.46
2023-05-20T20:29:16.150Z,62.69
2023-05-20T20:31:42.778Z,62.80
2023-05-20T20:34:09.702Z,62.51
2023-05-20T20:36:36.332Z,62.46
2023-05-20T20:39:05.258Z,62.83
2023-05-20T20:41:32.543Z,62.79
2023-05-20T20:44:01.086Z,62.84
2023-05-20T20:46:27.940Z,62.96
2023-05-20T20:48:54.666Z,63.38
2023-05-20T20:51:21.464Z,63.23
2023-05-20T21:07:12.746Z,63.11
2023-05-20T21:09:40.025Z,62.75
2023-05-20T21:12:08.382Z,63.20
2023-05-20T21:14:40.995Z,63.21
2023-05-20T21:17:09.581Z,63.57
2023-05-20T21:19:36.355Z,62.92
2023-05-20T21:22:03.074Z,63.11
2023-05-20T21:24:29.705Z,63.20
2023-05-20T21:26:56.576Z,63.02
2023-05-20T21:29:23.322Z,63.17
2023-05-20T21:31:50.243Z,63.22
2023-05-20T21:34:17.065Z,63.17
2023-05-20T21:36:45.055Z,63.18
2023-05-20T21:39:11.670Z,63.04
2023-05-20T21:41:38.448Z,62.97
2023-05-20T21:44:05.527Z,63.10
2023-05-20T21:46:32.205Z,63.02
2023-05-20T21:48:59.640Z,63.24
2023-05-20T21:54:30.030Z,63.47
